createdAt,value
2022-08-11T00:06:55.984Z,12.51
2022-08-11T00:17:03.912Z,12.37
2022-08-11T00:27:10.452Z,12.26
2022-08-11T00:37:23.263Z,12.18
2022-08-11T00:47:44.231Z,12.13
2022-08-11T00:58:22.543Z,12.00
2022-08-11T01:09:02.358Z,11.90
2022-08-11T01:20:45.415Z,11.78
2022-08-11T01:30:58.784Z,11.69
2022-08-11T01:42:05.417Z,11.61
2022-08-11T01:52:19.841Z,11.51
2022-08-11T02:02:47.878Z,11.42
2022-08-11T02:12:56.761Z,11.34
2022-08-11T02:24:07.206Z,11.22
2022-08-11T02:33:58.721Z,11.12
2022-08-11T02:44:18.478Z,11.02
2022-08-11T02:54:30.834Z,10.89
2022-08-11T03:04:51.412Z,10.81
2022-08-11T03:15:20.883Z,10.77
2022-08-11T03:25:32.622Z,10.78
2022-08-11T03:35:46.579Z,10.80
2022-08-11T03:46:02.942Z,10.92
2022-08-11T03:56:23.807Z,11.12
2022-08-11T04:06:51.636Z,11.37
2022-08-11T04:17:22.704Z,11.66
2022-08-11T04:27:48.375Z,12.09
2022-08-11T04:38:37.800Z,12.66
2022-08-11T04:49:25.835Z,13.35
2022-08-11T05:00:21.067Z,14.10
2022-08-11T05:10:43.333Z,15.58
2022-08-11T05:21:13.226Z,25.56
2022-08-11T05:31:41.125Z,34.42
2022-08-11T05:42:05.700Z,39.65
2022-08-11T05:52:38.345Z,41.53
2022-08-11T06:02:51.126Z,43.95
2022-08-11T06:13:01.190Z,45.17
2022-08-11T06:23:09.985Z,44.39
2022-08-11T06:33:19.243Z,43.77
2022-08-11T06:43:28.957Z,44.50
2022-08-11T06:53:37.186Z,43.46
2022-08-11T07:03:47.831Z,41.11
2022-08-11T07:14:17.183Z,41.55
2022-08-11T07:25:01.420Z,45.21
2022-08-11T07:35:14.260Z,47.74
2022-08-11T07:45:40.764Z,49.12
2022-08-11T07:55:51.837Z,50.23
2022-08-11T08:06:23.277Z,50.29
2022-08-11T08:17:02.002Z,50.07
2022-08-11T08:27:08.737Z,44.35
2022-08-11T08:37:46.008Z,34.70
2022-08-11T08:47:52.463Z,30.54
2022-08-11T08:58:01.446Z,28.59
2022-08-11T09:08:07.883Z,27.30
2022-08-11T09:18:14.910Z,26.50
2022-08-11T09:28:23.021Z,26.56
2022-08-11T09:38:49.587Z,26.57
2022-08-11T09:48:59.126Z,26.16
2022-08-11T09:59:06.928Z,26.12
2022-08-11T10:09:14.422Z,25.66
2022-08-11T10:19:22.171Z,26.12
2022-08-11T10:30:07.791Z,25.62
2022-08-11T10:40:18.446Z,25.26
2022-08-11T10:50:42.275Z,25.25
2022-08-11T11:00:50.011Z,24.98
2022-08-11T11:10:56.834Z,25.18
2022-08-11T11:21:07.570Z,24.89
2022-08-11T11:31:26.180Z,24.24
2022-08-11T11:41:32.594Z,23.91
2022-08-11T11:51:40.317Z,24.31
2022-08-11T12:01:50.527Z,24.61
2022-08-11T12:12:18.957Z,24.58
2022-08-11T12:22:42.697Z,24.38
2022-08-11T12:32:49.108Z,24.57
2022-08-11T12:43:21.659Z,24.47
2022-08-11T12:53:33.270Z,25.01
2022-08-11T13:03:57.407Z,24.81
2022-08-11T13:14:04.392Z,24.56
2022-08-11T13:24:10.771Z,24.98
2022-08-11T13:34:19.755Z,25.24
2022-08-11T13:44:28.219Z,24.54
2022-08-11T13:54:38.427Z,22.30
2022-08-11T14:04:46.974Z,19.61
2022-08-11T14:15:08.220Z,18.64
2022-08-11T14:25:16.918Z,18.17
2022-08-11T14:35:23.039Z,18.33
2022-08-11T14:45:58.247Z,18.65
2022-08-11T14:56:21.222Z,19.39
2022-08-11T15:06:29.590Z,19.67
2022-08-11T15:16:54.858Z,19.61
2022-08-11T15:27:34.408Z,19.81
2022-08-11T15:37:42.490Z,20.12
2022-08-11T15:48:05.064Z,20.56
2022-08-11T15:58:30.687Z,20.81
2022-08-11T16:08:39.033Z,20.95
2022-08-11T16:18:51.642Z,20.82
2022-08-11T16:28:59.343Z,20.66
2022-08-11T16:39:07.614Z,20.47
2022-08-11T16:49:18.244Z,20.08
2022-08-11T16:59:30.798Z,19.73
2022-08-11T17:09:56.968Z,19.41
2022-08-11T17:20:40.583Z,19.08
2022-08-11T17:30:49.448Z,18.79
2022-08-11T17:41:30.177Z,18.45
2022-08-11T17:51:55.023Z,18.03
2022-08-11T18:02:29.581Z,17.68
2022-08-11T18:12:58.655Z,17.37
2022-08-11T18:23:46.217Z,17.16
2022-08-11T18:34:14.102Z,16.86
2022-08-11T18:44:36.570Z,16.53
2022-08-11T18:55:03.550Z,16.26
2022-08-11T19:06:33.732Z,16.11
2022-08-11T19:16:14.548Z,16.01
2022-08-11T19:26:39.192Z,15.68
2022-08-11T19:37:04.063Z,15.40
2022-08-11T19:47:28.920Z,15.22
2022-08-11T19:57:55.363Z,14.99
2022-08-11T20:08:19.929Z,14.80
2022-08-11T20:18:45.594Z,14.71
2022-08-11T20:29:12.482Z,14.71
2022-08-11T20:39:36.567Z,14.76
2022-08-11T20:50:03.009Z,14.96
2022-08-11T21:00:38.749Z,15.36
2022-08-11T21:11:06.323Z,15.87
2022-08-11T21:21:45.621Z,16.31
2022-08-11T21:32:11.814Z,16.54
2022-08-11T21:42:37.926Z,16.75
2022-08-11T21:53:02.118Z,16.91
2022-08-11T22:03:26.603Z,17.06
2022-08-11T22:14:06.327Z,17.01
2022-08-11T22:24:32.782Z,16.89
2022-08-11T22:34:57.813Z,16.66
2022-08-11T22:45:21.429Z,16.34
2022-08-11T22:55:46.386Z,16.05
2022-08-11T23:06:10.421Z,15.81
2022-08-11T23:16:34.927Z,15.82
2022-08-11T23:26:58.979Z,16.07
2022-08-11T23:37:22.802Z,16.29
2022-08-11T23:47:50.532Z,16.61
2022-08-11T23:58:15.086Z,16.92
